createdAt,value
2022-11-26T00:00:11.145Z,5.07
2022-11-26T00:02:40.078Z,4.77
2022-11-26T00:05:07.992Z,5.03
2022-11-26T00:07:36.808Z,4.27
2022-11-26T00:10:05.712Z,4.20
2022-11-26T00:12:33.986Z,4.10
2022-11-26T00:15:02.498Z,4.60
2022-11-26T00:17:29.713Z,5.03
2022-11-26T00:19:56.881Z,4.20
2022-11-26T00:22:25.293Z,4.33
2022-11-26T00:24:54.446Z,4.53
2022-11-26T00:27:25.652Z,4.33
2022-11-26T00:29:52.991Z,4.50
2022-11-26T00:32:21.272Z,4.43
2022-11-26T00:34:48.534Z,4.63
2022-11-26T00:37:19.637Z,4.53
2022-11-26T00:39:47.554Z,4.57
2022-11-26T00:42:17.284Z,4.23
2022-11-26T00:44:44.552Z,4.93
2022-11-26T00:47:11.857Z,5.33
2022-11-26T00:49:39.162Z,4.63
2022-11-26T00:52:10.796Z,4.97
2022-11-26T00:54:38.377Z,5.43
2022-11-26T00:57:11.032Z,4.87
2022-11-26T00:59:39.898Z,4.53
2022-11-26T01:02:07.354Z,4.67
2022-11-26T01:04:34.734Z,4.27
2022-11-26T01:07:04.909Z,4.83
2022-11-26T01:09:53.921Z,4.60
2022-11-26T01:12:30.076Z,4.63
2022-11-26T01:14:58.664Z,4.47
2022-11-26T01:17:25.849Z,4.53
2022-11-26T01:19:53.043Z,4.07
2022-11-26T01:22:21.282Z,4.10
2022-11-26T01:24:48.560Z,4.80
2022-11-26T01:27:21.938Z,3.83
2022-11-26T01:29:49.259Z,4.13
2022-11-26T01:32:17.876Z,5.23
2022-11-26T01:34:45.177Z,4.93
2022-11-26T01:37:14.314Z,4.50
2022-11-26T01:39:58.574Z,4.67
2022-11-26T01:42:36.194Z,4.23
2022-11-26T01:45:03.560Z,5.23
2022-11-26T01:47:32.448Z,5.13
2022-11-26T01:50:18.488Z,4.00
2022-11-26T01:52:46.107Z,5.47
2022-11-26T01:55:15.432Z,4.47
2022-11-26T01:57:48.287Z,4.83
2022-11-26T02:00:16.316Z,4.50
2022-11-26T02:02:45.956Z,3.87
2022-11-26T02:05:19.051Z,5.40
2022-11-26T02:08:11.276Z,5.27
2022-11-26T02:11:07.015Z,6.00
2022-11-26T02:13:34.727Z,5.07
2022-11-26T02:16:06.160Z,5.87
2022-11-26T02:18:38.635Z,5.43
2022-11-26T02:21:07.012Z,5.73
2022-11-26T02:23:53.368Z,5.33
2022-11-26T02:29:07.792Z,5.67
2022-11-26T02:31:40.999Z,5.07
2022-11-26T02:34:12.053Z,5.60
2022-11-26T02:36:59.674Z,5.70
2022-11-26T02:43:02.375Z,4.97
2022-11-26T02:45:30.788Z,5.80
2022-11-26T02:48:00.765Z,5.73
2022-11-26T02:50:30.330Z,5.67
2022-11-26T02:52:58.893Z,5.00
2022-11-26T02:55:28.220Z,5.30
2022-11-26T02:57:55.981Z,4.57
2022-11-26T03:00:23.591Z,5.57
2022-11-26T03:02:53.111Z,5.87
2022-11-26T03:05:21.791Z,5.67
2022-11-26T03:07:58.314Z,5.87
2022-11-26T03:10:37.979Z,5.63
2022-11-26T03:13:05.267Z,5.93
2022-11-26T03:15:32.454Z,6.40
2022-11-26T03:17:59.913Z,4.70
2022-11-26T03:20:28.458Z,5.97
2022-11-26T03:22:55.676Z,5.10
2022-11-26T03:28:08.364Z,6.03
2022-11-26T03:30:35.869Z,6.37
2022-11-26T03:33:03.122Z,4.83
2022-11-26T03:35:45.228Z,6.17
2022-11-26T03:38:34.215Z,6.03
2022-11-26T03:41:07.226Z,4.73
2022-11-26T03:43:34.804Z,5.20
2022-11-26T03:46:02.466Z,5.87
2022-11-26T03:48:29.712Z,6.10
2022-11-26T03:50:56.898Z,5.40
2022-11-26T03:53:25.470Z,5.33
2022-11-26T03:55:52.793Z,5.17
2022-11-26T03:58:20.061Z,5.57
2022-11-26T04:00:47.634Z,5.50
2022-11-26T04:03:14.994Z,5.27
2022-11-26T04:05:42.251Z,6.00
2022-11-26T04:08:10.746Z,4.70
2022-11-26T04:10:51.581Z,5.60
2022-11-26T04:13:18.797Z,5.67
2022-11-26T04:15:46.140Z,6.80
2022-11-26T04:18:13.349Z,7.27
2022-11-26T04:20:40.569Z,6.20
2022-11-26T04:23:07.955Z,6.27
2022-11-26T04:28:29.520Z,6.10
2022-11-26T04:30:56.753Z,6.27
2022-11-26T04:33:24.014Z,6.37
2022-11-26T04:36:00.348Z,6.87
2022-11-26T04:38:55.499Z,5.97
2022-11-26T04:41:35.226Z,5.20
2022-11-26T04:44:04.127Z,5.80
2022-11-26T04:46:31.371Z,6.30
2022-11-26T04:48:58.581Z,6.47
2022-11-26T04:51:25.794Z,6.00
2022-11-26T04:53:55.803Z,6.67
2022-11-26T04:56:24.188Z,7.23
2022-11-26T04:58:51.603Z,7.00
2022-11-26T05:01:20.177Z,7.13
2022-11-26T05:03:47.395Z,5.97
2022-11-26T05:06:14.688Z,7.03
2022-11-26T05:08:41.907Z,6.10
2022-11-26T05:11:10.595Z,5.93
2022-11-26T05:13:38.843Z,6.63
2022-11-26T05:16:06.687Z,7.47
2022-11-26T05:18:35.558Z,6.23
2022-11-26T05:21:02.785Z,6.40
2022-11-26T05:23:30.216Z,6.83
2022-11-26T05:26:02.806Z,7.87
2022-11-26T05:28:30.611Z,7.43
2022-11-26T05:30:58.848Z,6.33
2022-11-26T05:33:26.102Z,7.50
2022-11-26T05:35:54.669Z,7.73
2022-11-26T05:38:21.958Z,7.40
2022-11-26T05:40:54.288Z,8.67
2022-11-26T05:43:21.634Z,7.80
2022-11-26T05:45:49.019Z,7.27
2022-11-26T05:48:16.331Z,8.20
2022-11-26T05:50:58.676Z,6.93
2022-11-26T05:53:38.186Z,7.80
2022-11-26T05:56:05.862Z,7.90
2022-11-26T05:58:33.188Z,7.13
2022-11-26T06:01:00.480Z,8.93
2022-11-26T06:03:27.943Z,8.33
2022-11-26T06:05:55.410Z,8.30
2022-11-26T06:08:23.988Z,8.13
2022-11-26T06:10:56.709Z,7.30
2022-11-26T06:13:24.022Z,8.47
2022-11-26T06:15:51.383Z,7.57
2022-11-26T06:18:18.670Z,8.80
2022-11-26T06:20:49.732Z,8.90
2022-11-26T06:23:20.023Z,9.07
2022-11-26T06:26:01.411Z,9.00
2022-11-26T06:28:28.664Z,9.07
2022-11-26T06:30:55.949Z,9.47
2022-11-26T06:33:23.201Z,7.90
2022-11-26T06:35:50.454Z,9.03
2022-11-26T06:38:17.692Z,7.73
2022-11-26T06:43:28.872Z,9.43
2022-11-26T06:45:57.144Z,8.30
2022-11-26T06:48:25.084Z,8.27
2022-11-26T06:50:52.950Z,9.20
2022-11-26T06:53:29.396Z,8.77
2022-11-26T06:55:59.628Z,8.10
2022-11-26T06:58:28.260Z,7.23
2022-11-26T07:00:55.638Z,7.60
2022-11-26T07:03:24.916Z,9.33
2022-11-26T07:05:55.447Z,7.77
2022-11-26T07:08:22.663Z,8.40
2022-11-26T07:13:33.748Z,7.83
2022-11-26T07:16:02.255Z,6.77
2022-11-26T07:18:29.611Z,8.00
2022-11-26T07:20:56.905Z,7.90
2022-11-26T07:23:24.161Z,7.40
2022-11-26T07:29:34.752Z,8.20
2022-11-26T07:32:07.163Z,7.17
2022-11-26T07:34:34.954Z,8.13
2022-11-26T07:37:02.298Z,7.47
2022-11-26T07:39:29.755Z,4.90
2022-11-26T07:41:56.983Z,6.40
2022-11-26T07:44:24.352Z,4.97
2022-11-26T07:46:52.932Z,9.13
2022-11-26T07:49:20.205Z,7.87
2022-11-26T07:51:47.659Z,5.93
2022-11-26T07:54:14.932Z,7.20
2022-11-26T07:56:45.330Z,6.90
2022-11-26T08:02:24.414Z,7.73
2022-11-26T08:04:51.751Z,8.53
2022-11-26T08:07:24.639Z,7.93
2022-11-26T08:09:54.879Z,7.53
2022-11-26T08:12:22.041Z,7.93
2022-11-26T08:14:49.252Z,7.33
2022-11-26T08:17:16.470Z,9.13
2022-11-26T08:19:45.053Z,6.80
2022-11-26T08:22:12.295Z,5.67
2022-11-26T08:24:39.832Z,7.10
2022-11-26T08:27:07.529Z,8.23
2022-11-26T08:29:36.501Z,8.00
2022-11-26T08:32:03.832Z,6.93
2022-11-26T08:34:31.179Z,7.67
2022-11-26T08:37:00.090Z,8.57
2022-11-26T08:39:27.463Z,8.37
2022-11-26T08:41:54.668Z,6.43
2022-11-26T08:47:18.171Z,7.57
2022-11-26T08:49:45.478Z,8.57
2022-11-26T08:52:14.121Z,5.90
2022-11-26T08:54:44.955Z,6.03
2022-11-26T08:57:12.748Z,7.30
2022-11-26T08:59:58.366Z,6.13
2022-11-26T09:02:48.166Z,7.40
2022-11-26T09:05:27.713Z,6.90
2022-11-26T09:07:56.433Z,7.47
2022-11-26T09:10:23.763Z,5.80
2022-11-26T09:12:51.058Z,7.30
2022-11-26T09:15:18.435Z,8.60
2022-11-26T09:17:45.694Z,7.53
2022-11-26T09:20:13.344Z,6.87
2022-11-26T09:22:40.629Z,7.33
2022-11-26T09:25:10.277Z,5.43
2022-11-26T09:27:38.259Z,7.40
2022-11-26T09:30:06.311Z,6.77
2022-11-26T09:32:34.451Z,7.83
2022-11-26T09:35:04.783Z,7.47
2022-11-26T09:37:51.358Z,6.97
2022-11-26T09:40:21.070Z,6.47
2022-11-26T09:42:52.962Z,7.43
2022-11-26T09:45:27.143Z,6.23
2022-11-26T09:47:54.872Z,6.80
2022-11-26T09:50:26.298Z,6.67
2022-11-26T09:52:55.786Z,7.67
2022-11-26T09:55:26.016Z,7.20
2022-11-26T09:57:58.190Z,7.13
2022-11-26T10:00:26.934Z,7.57
2022-11-26T10:02:55.034Z,7.90
2022-11-26T10:05:23.682Z,6.77
2022-11-26T10:08:00.133Z,7.30
2022-11-26T10:10:51.677Z,7.87
2022-11-26T10:13:33.922Z,6.47
2022-11-26T10:16:06.561Z,7.43
2022-11-26T10:18:38.374Z,6.70
2022-11-26T10:21:14.705Z,4.40
2022-11-26T10:23:44.034Z,7.43
2022-11-26T10:26:15.899Z,5.93
2022-11-26T10:28:45.466Z,4.70
2022-11-26T10:31:16.444Z,7.27
2022-11-26T10:33:49.104Z,6.80
2022-11-26T10:36:20.411Z,6.73
2022-11-26T10:38:47.704Z,7.90
2022-11-26T10:41:16.758Z,8.63
2022-11-26T10:46:34.327Z,6.17
2022-11-26T10:49:16.152Z,8.50
2022-11-26T10:51:46.504Z,8.43
2022-11-26T10:54:22.844Z,7.33
2022-11-26T10:56:54.862Z,7.40
2022-11-26T10:59:24.842Z,6.70
2022-11-26T11:01:56.024Z,7.70
2022-11-26T11:04:28.264Z,7.40
2022-11-26T11:06:55.681Z,7.40
2022-11-26T11:09:27.182Z,6.20
2022-11-26T11:12:09.718Z,6.27
2022-11-26T11:14:42.732Z,8.97
2022-11-26T11:17:19.671Z,7.83
2022-11-26T11:19:47.079Z,7.13
2022-11-26T11:22:18.406Z,6.63
2022-11-26T11:24:46.498Z,6.47
2022-11-26T11:27:22.461Z,7.53
2022-11-26T11:30:08.374Z,5.97
2022-11-26T11:32:49.190Z,8.03
2022-11-26T11:35:22.870Z,6.90
2022-11-26T11:37:50.992Z,5.87
2022-11-26T11:40:19.319Z,6.93
2022-11-26T11:42:50.156Z,7.13
2022-11-26T11:45:21.263Z,5.60
2022-11-26T11:50:41.014Z,5.47
2022-11-26T11:53:21.439Z,6.00
2022-11-26T11:55:51.735Z,6.00
2022-11-26T11:58:55.064Z,7.57
2022-11-26T12:01:45.763Z,6.47
2022-11-26T12:04:21.515Z,7.90
2022-11-26T12:06:55.589Z,7.57
2022-11-26T12:09:26.473Z,7.57
2022-11-26T12:11:56.034Z,6.47
2022-11-26T12:14:24.758Z,8.73
2022-11-26T12:16:55.270Z,7.97
2022-11-26T12:19:26.387Z,8.13
2022-11-26T12:21:58.231Z,6.80
2022-11-26T12:24:33.214Z,6.80
2022-11-26T12:27:04.481Z,7.60
2022-11-26T12:29:36.407Z,7.30
2022-11-26T12:32:06.273Z,7.20
2022-11-26T12:34:56.235Z,7.70
2022-11-26T12:37:28.973Z,7.07
2022-11-26T12:39:58.272Z,7.53
2022-11-26T12:42:27.765Z,7.43
2022-11-26T12:44:57.041Z,6.17
2022-11-26T12:47:26.102Z,5.17
2022-11-26T12:50:00.616Z,8.07
2022-11-26T12:52:33.141Z,6.23
2022-11-26T12:55:03.492Z,5.50
2022-11-26T12:57:34.127Z,7.47
2022-11-26T13:00:02.995Z,6.87
2022-11-26T13:06:21.833Z,7.67
2022-11-26T13:08:55.157Z,6.97
2022-11-26T13:11:27.297Z,7.43
2022-11-26T13:13:56.990Z,7.43
2022-11-26T13:16:27.390Z,7.53
2022-11-26T13:18:55.936Z,6.57
2022-11-26T13:24:18.530Z,7.40
2022-11-26T13:26:51.822Z,7.57
2022-11-26T13:29:33.635Z,7.10
2022-11-26T13:32:15.872Z,8.73
2022-11-26T13:35:10.348Z,6.50
2022-11-26T13:37:52.541Z,6.60
2022-11-26T13:40:37.838Z,6.10
2022-11-26T13:43:13.400Z,5.90
2022-11-26T13:45:56.642Z,6.73
2022-11-26T13:48:30.236Z,6.27
2022-11-26T13:51:01.288Z,6.40
2022-11-26T13:53:30.293Z,5.30
2022-11-26T13:56:00.486Z,4.37
2022-11-26T13:58:30.615Z,6.57
2022-11-26T14:01:17.958Z,6.30
2022-11-26T14:03:46.214Z,4.73
2022-11-26T14:06:13.538Z,5.53
2022-11-26T14:08:42.240Z,6.77
2022-11-26T14:11:11.698Z,5.90
2022-11-26T14:13:39.341Z,5.13
2022-11-26T14:16:07.391Z,6.40
2022-11-26T14:18:53.020Z,5.37
2022-11-26T14:21:20.644Z,5.50
2022-11-26T14:23:49.004Z,4.63
2022-11-26T14:29:06.383Z,5.30
2022-11-26T14:31:34.371Z,5.23
2022-11-26T14:34:05.988Z,5.07
2022-11-26T14:36:33.235Z,3.97
2022-11-26T14:39:04.709Z,6.83
2022-11-26T14:41:54.352Z,5.83
2022-11-26T14:47:59.344Z,4.93
2022-11-26T14:50:26.912Z,5.30
2022-11-26T14:52:58.587Z,4.30
2022-11-26T14:55:28.126Z,4.93
2022-11-26T14:57:56.833Z,4.97
2022-11-26T15:03:20.407Z,5.03
2022-11-26T15:05:48.062Z,5.00
2022-11-26T15:08:16.617Z,6.07
2022-11-26T15:10:48.859Z,5.13
2022-11-26T15:13:20.586Z,5.63
2022-11-26T15:16:09.746Z,5.03
2022-11-26T15:22:21.403Z,3.70
2022-11-26T15:24:51.810Z,4.93
2022-11-26T15:27:29.073Z,6.03
2022-11-26T15:29:56.474Z,5.57
2022-11-26T15:32:27.744Z,5.33
2022-11-26T15:37:45.786Z,5.03
2022-11-26T15:40:20.773Z,6.00
2022-11-26T15:42:48.675Z,4.67
2022-11-26T15:45:16.518Z,3.97
2022-11-26T15:47:46.484Z,5.20
2022-11-26T15:50:33.186Z,5.13
2022-11-26T15:53:19.700Z,4.53
2022-11-26T15:55:57.812Z,5.00
2022-11-26T15:58:27.044Z,3.83
2022-11-26T16:00:55.216Z,4.57
2022-11-26T16:03:36.476Z,4.60
2022-11-26T16:06:05.522Z,4.83
2022-11-26T16:08:33.063Z,4.60
2022-11-26T16:11:08.810Z,4.17
2022-11-26T16:13:36.539Z,4.37
2022-11-26T16:16:07.504Z,5.40
2022-11-26T16:18:36.140Z,4.00
2022-11-26T16:21:04.855Z,5.77
2022-11-26T16:23:32.086Z,6.63
2022-11-26T16:26:17.588Z,4.93
2022-11-26T16:28:45.314Z,5.00
2022-11-26T16:31:12.706Z,4.90
2022-11-26T16:33:39.941Z,4.90
2022-11-26T16:36:18.573Z,4.67
2022-11-26T16:38:45.855Z,5.50
2022-11-26T16:41:20.735Z,4.67
2022-11-26T16:43:48.213Z,5.43
2022-11-26T16:46:16.764Z,5.27
2022-11-26T16:48:44.521Z,8.43
2022-11-26T16:51:31.737Z,4.60
2022-11-26T16:54:14.059Z,4.83
2022-11-26T16:56:43.082Z,4.40
2022-11-26T16:59:17.487Z,4.50
2022-11-26T17:01:44.749Z,5.27
2022-11-26T17:04:12.996Z,4.10
2022-11-26T17:06:41.155Z,4.80
2022-11-26T17:11:59.917Z,4.37
2022-11-26T17:14:27.165Z,5.77
2022-11-26T17:16:54.745Z,4.83
2022-11-26T17:19:31.595Z,5.53
2022-11-26T17:32:36.440Z,6.13
2022-11-26T17:35:04.185Z,3.60
2022-11-26T17:37:31.882Z,4.27
2022-11-26T17:40:01.303Z,5.03
2022-11-26T17:42:32.301Z,4.53
2022-11-26T17:45:03.736Z,4.43
2022-11-26T17:47:31.690Z,4.80
2022-11-26T17:50:20.681Z,4.07
2022-11-26T17:52:54.807Z,4.67
2022-11-26T17:55:27.383Z,4.03
2022-11-26T17:57:54.717Z,5.10
2022-11-26T18:00:22.888Z,4.67
2022-11-26T18:02:50.232Z,5.23
2022-11-26T18:05:17.676Z,4.80
2022-11-26T18:07:44.910Z,4.73
2022-11-26T18:10:16.228Z,6.20
2022-11-26T18:12:43.990Z,4.60
2022-11-26T18:15:16.628Z,4.70
2022-11-26T18:17:46.432Z,4.37
2022-11-26T18:20:15.352Z,3.27
2022-11-26T18:23:01.264Z,5.50
2022-11-26T18:25:30.617Z,5.00
2022-11-26T18:27:57.902Z,5.20
2022-11-26T18:30:25.621Z,6.80
2022-11-26T18:32:53.095Z,5.23
2022-11-26T18:35:20.374Z,3.87
2022-11-26T18:40:31.139Z,4.73
2022-11-26T18:42:58.384Z,5.20
2022-11-26T18:45:26.005Z,5.00
2022-11-26T18:47:53.520Z,4.33
2022-11-26T18:50:25.473Z,4.47
2022-11-26T18:53:07.932Z,4.03
2022-11-26T18:55:36.915Z,5.47
2022-11-26T18:58:07.858Z,4.43
2022-11-26T19:00:35.470Z,5.77
2022-11-26T19:03:02.636Z,4.43
2022-11-26T19:05:29.859Z,5.70
2022-11-26T19:10:48.178Z,5.00
2022-11-26T19:13:15.709Z,4.40
2022-11-26T19:15:43.476Z,5.07
2022-11-26T19:18:32.696Z,6.17
2022-11-26T19:21:24.754Z,5.93
2022-11-26T19:23:58.034Z,5.73
2022-11-26T19:26:26.678Z,5.40
2022-11-26T19:28:54.098Z,5.53
2022-11-26T19:31:22.188Z,6.77
2022-11-26T19:33:52.903Z,6.10
2022-11-26T19:36:20.138Z,7.03
2022-11-26T19:38:47.351Z,7.97
2022-11-26T19:41:14.796Z,6.10
2022-11-26T19:43:43.448Z,6.07
2022-11-26T19:46:11.513Z,6.67
2022-11-26T19:48:39.983Z,6.30
2022-11-26T19:51:07.958Z,6.20
2022-11-26T19:53:35.756Z,6.73
2022-11-26T19:56:04.599Z,6.43
2022-11-26T19:58:32.602Z,6.60
2022-11-26T20:01:01.846Z,5.40
2022-11-26T20:03:34.241Z,5.53
2022-11-26T20:06:04.955Z,5.60
2022-11-26T20:08:32.561Z,5.37
2022-11-26T20:11:01.314Z,6.07
2022-11-26T20:13:28.502Z,7.70
2022-11-26T20:15:55.815Z,5.13
2022-11-26T20:18:24.370Z,5.97
2022-11-26T20:20:58.003Z,5.73
2022-11-26T20:23:25.311Z,5.70
2022-11-26T20:25:52.586Z,6.10
2022-11-26T20:28:19.854Z,6.40
2022-11-26T20:30:47.146Z,6.03
2022-11-26T20:33:14.740Z,6.97
2022-11-26T20:35:43.357Z,7.33
2022-11-26T20:38:10.618Z,7.40
2022-11-26T20:40:39.555Z,6.83
2022-11-26T20:43:06.746Z,5.83
2022-11-26T20:45:34.245Z,6.23
2022-11-26T20:48:01.500Z,7.87
2022-11-26T20:50:28.705Z,6.90
2022-11-26T20:52:57.533Z,7.20
2022-11-26T20:55:25.100Z,6.77
2022-11-26T20:57:52.598Z,6.77
2022-11-26T21:00:24.797Z,7.77
2022-11-26T21:02:54.622Z,6.67
2022-11-26T21:05:22.278Z,5.47
2022-11-26T21:07:52.797Z,6.77
2022-11-26T21:10:21.822Z,8.10
2022-11-26T21:12:49.082Z,6.57
2022-11-26T21:15:16.346Z,5.60
2022-11-26T21:17:43.720Z,5.43
2022-11-26T21:20:11.474Z,6.23
2022-11-26T21:22:38.787Z,5.27
2022-11-26T21:25:06.557Z,5.87
2022-11-26T21:27:35.185Z,5.60
2022-11-26T21:30:02.764Z,6.10
2022-11-26T21:32:29.993Z,5.33
2022-11-26T21:34:57.209Z,6.53
2022-11-26T21:37:24.438Z,5.17
2022-11-26T21:39:51.677Z,5.60
2022-11-26T21:42:18.849Z,5.80
2022-11-26T21:44:47.484Z,5.03
2022-11-26T21:47:14.851Z,4.60
2022-11-26T21:49:42.129Z,4.50
2022-11-26T21:52:09.704Z,5.67
2022-11-26T21:54:37.074Z,5.27
2022-11-26T21:57:04.367Z,5.83
2022-11-26T21:59:31.662Z,6.23
2022-11-26T22:02:00.406Z,6.47
2022-11-26T22:04:27.703Z,6.13
2022-11-26T22:06:55.057Z,4.77
2022-11-26T22:09:22.316Z,5.23
2022-11-26T22:11:49.578Z,6.20
2022-11-26T22:14:17.403Z,4.47
2022-11-26T22:16:44.778Z,5.47
2022-11-26T22:19:13.336Z,7.47
2022-11-26T22:21:41.792Z,5.13
2022-11-26T22:24:11.602Z,6.40
2022-11-26T22:26:39.155Z,5.83
2022-11-26T22:29:06.394Z,7.63
2022-11-26T22:31:34.544Z,5.83
2022-11-26T22:34:02.775Z,5.90
2022-11-26T22:36:31.423Z,6.17
2022-11-26T22:38:58.797Z,5.47
2022-11-26T22:41:26.220Z,6.03
2022-11-26T22:43:53.494Z,4.93
2022-11-26T22:46:21.489Z,5.73
2022-11-26T22:48:49.956Z,5.43
2022-11-26T22:51:17.224Z,6.43
2022-11-26T22:53:49.548Z,6.67
2022-11-26T22:56:17.381Z,6.00
2022-11-26T22:58:44.842Z,5.13
2022-11-26T23:01:16.222Z,6.47
2022-11-26T23:03:43.527Z,6.53
2022-11-26T23:06:11.636Z,6.30
2022-11-26T23:08:39.657Z,6.13
2022-11-26T23:11:18.926Z,5.37
2022-11-26T23:13:47.105Z,6.17
2022-11-26T23:16:14.871Z,6.90
2022-11-26T23:18:42.128Z,6.00
2022-11-26T23:21:10.533Z,6.33
2022-11-26T23:23:38.218Z,5.63
2022-11-26T23:26:06.149Z,5.80
2022-11-26T23:28:36.218Z,5.20
2022-11-26T23:31:04.269Z,4.40
2022-11-26T23:33:31.676Z,5.00
2022-11-26T23:35:59.011Z,5.57
2022-11-26T23:38:26.479Z,6.13
2022-11-26T23:40:54.397Z,5.17
2022-11-26T23:43:22.066Z,5.23
2022-11-26T23:45:50.674Z,6.33
2022-11-26T23:48:18.035Z,5.63
2022-11-26T23:50:45.232Z,5.30
2022-11-26T23:53:17.847Z,4.80
2022-11-26T23:55:45.119Z,5.07
2022-11-26T23:58:12.358Z,4.77
